Time;durP1;ratioP1;P1;durP2;ratioP2;P2;SDS_P1;SDS_P2;PMS_P1;PMS_P2;Temp;Humidity;BMP_temperature;BMP_pressure;BME280_temperature;BME280_humidity;BME280_pressure;Samples;Min_cycle;Max_cycle;Signal;HPM_P1;HPM_P2
2021/12/20 00:00:09;;;;;;;0.00;0.00;;;;;;;;;;1733407;28;20204;-72
2021/12/20 00:01:00;;;;;;;0.10;0.10;;;;;;;;;;1730670;28;20236;-72
2021/12/20 00:01:53;;;;;;;0.00;0.00;;;;;;;;;;1732744;28;20591;-72
2021/12/20 00:02:45;;;;;;;0.00;0.00;;;;;;;;;;1733799;28;20222;-72
2021/12/20 00:03:37;;;;;;;0.00;0.00;;;;;;;;;;1733082;28;20204;-72
2021/12/20 00:04:28;;;;;;;0.10;0.10;;;;;;;;;;1733795;28;20555;-72
2021/12/20 00:05:21;;;;;;;0.10;0.10;;;;;;;;;;1729992;28;20655;-72
2021/12/20 00:06:14;;;;;;;0.10;0.10;;;;;;;;;;1730643;28;20236;-72
2021/12/20 00:07:06;;;;;;;0.00;0.00;;;;;;;;;;1732963;28;20203;-72
2021/12/20 00:07:58;;;;;;;0.00;0.00;;;;;;;;;;1730648;28;20199;-72
2021/12/20 00:08:50;;;;;;;0.00;0.00;;;;;;;;;;1732179;28;20208;-72
2021/12/20 00:09:42;;;;;;;0.00;0.00;;;;;;;;;;1731417;28;20221;-72
2021/12/20 00:10:33;;;;;;;0.00;0.00;;;;;;;;;;1732690;28;20222;-72
2021/12/20 00:11:25;;;;;;;0.00;0.00;;;;;;;;;;1733179;28;20576;-72
2021/12/20 00:12:16;;;;;;;0.00;0.00;;;;;;;;;;1733762;28;20211;-72
2021/12/20 00:13:09;;;;;;;0.00;0.00;;;;;;;;;;1733626;28;20227;-72
2021/12/20 00:14:00;;;;;;;0.00;0.00;;;;;;;;;;1732923;28;20641;-72
2021/12/20 00:14:52;;;;;;;0.00;0.00;;;;;;;;;;1733698;28;20265;-72
2021/12/20 00:15:44;;;;;;;0.00;0.00;;;;;;;;;;1732148;28;20624;-72
2021/12/20 00:16:36;;;;;;;0.00;0.00;;;;;;;;;;1732084;28;20231;-72
2021/12/20 00:17:27;;;;;;;0.00;0.00;;;;;;;;;;1732058;28;20208;-72
2021/12/20 00:18:20;;;;;;;0.00;0.00;;;;;;;;;;1731953;28;20301;-72
2021/12/20 00:19:11;;;;;;;0.00;0.00;;;;;;;;;;1731508;28;20204;-72
2021/12/20 00:20:03;;;;;;;0.00;0.00;;;;;;;;;;1731396;28;20691;-72
2021/12/20 00:20:55;;;;;;;0.00;0.00;;;;;;;;;;1730809;28;20301;-72
2021/12/20 00:21:48;;;;;;;0.10;0.10;;;;;;;;;;1732605;28;20227;-72
2021/12/20 00:22:40;;;;;;;0.00;0.00;;;;;;;;;;1731601;28;20207;-72
2021/12/20 00:23:32;;;;;;;0.00;0.00;;;;;;;;;;1732695;28;20214;-72
2021/12/20 00:24:23;;;;;;;0.00;0.00;;;;;;;;;;1731594;28;20204;-72
2021/12/20 00:25:16;;;;;;;0.00;0.00;;;;;;;;;;1733294;28;20303;-72
2021/12/20 00:26:09;;;;;;;0.00;0.00;;;;;;;;;;1731657;28;20238;-72
2021/12/20 00:27:03;;;;;;;0.00;0.00;;;;;;;;;;1735602;28;20204;-72
2021/12/20 00:27:54;;;;;;;0.00;0.00;;;;;;;;;;1732729;28;20208;-72
2021/12/20 00:28:46;;;;;;;0.00;0.00;;;;;;;;;;1735007;28;20278;-71
2021/12/20 00:29:37;;;;;;;0.00;0.00;;;;;;;;;;1731946;28;20208;-72
2021/12/20 00:30:30;;;;;;;0.00;0.00;;;;;;;;;;1734508;28;20715;-72
2021/12/20 00:31:21;;;;;;;0.00;0.00;;;;;;;;;;1732823;28;20203;-72
2021/12/20 00:32:13;;;;;;;0.00;0.00;;;;;;;;;;1733128;28;20223;-72
2021/12/20 00:33:05;;;;;;;0.00;0.00;;;;;;;;;;1731067;28;20207;-72
2021/12/20 00:33:57;;;;;;;0.10;0.10;;;;;;;;;;1732509;28;20213;-72
2021/12/20 00:34:48;;;;;;;0.05;0.05;;;;;;;;;;1731300;28;20608;-72
2021/12/20 00:35:41;;;;;;;0.10;0.10;;;;;;;;;;1732421;28;20333;-72
2021/12/20 00:36:32;;;;;;;0.00;0.00;;;;;;;;;;1733459;28;20261;-72
2021/12/20 00:40:55;;;;;;;0.10;0.10;;;;;;;;;;1731091;28;20238;-72
2021/12/20 00:41:46;;;;;;;0.00;0.00;;;;;;;;;;1732763;28;20204;-72
2021/12/20 00:42:38;;;;;;;0.10;0.10;;;;;;;;;;1731242;28;20231;-72
2021/12/20 00:43:31;;;;;;;0.10;0.10;;;;;;;;;;1735931;28;20213;-72
2021/12/20 00:44:22;;;;;;;0.00;0.00;;;;;;;;;;1732820;28;20200;-72
2021/12/20 00:45:14;;;;;;;0.00;0.00;;;;;;;;;;1735309;28;20202;-72
2021/12/20 00:46:05;;;;;;;0.00;0.00;;;;;;;;;;1731395;28;20242;-72
2021/12/20 00:46:58;;;;;;;0.00;0.00;;;;;;;;;;1735562;28;20311;-72
2021/12/20 00:47:49;;;;;;;0.00;0.00;;;;;;;;;;1730144;28;20200;-72
2021/12/20 00:48:41;;;;;;;0.10;0.10;;;;;;;;;;1735666;28;20207;-72
2021/12/20 00:49:32;;;;;;;0.00;0.00;;;;;;;;;;1731068;28;20212;-72
2021/12/20 00:50:26;;;;;;;0.00;0.00;;;;;;;;;;1732311;28;20667;-72
2021/12/20 00:51:17;;;;;;;0.05;0.05;;;;;;;;;;1732666;28;20703;-72
2021/12/20 00:52:09;;;;;;;0.00;0.00;;;;;;;;;;1732692;28;20564;-72
2021/12/20 00:53:02;;;;;;;0.00;0.00;;;;;;;;;;1731148;28;20474;-72
2021/12/20 00:53:54;;;;;;;0.00;0.00;;;;;;;;;;1732759;28;20222;-72
2021/12/20 00:54:45;;;;;;;0.00;0.00;;;;;;;;;;1729684;28;20629;-72
2021/12/20 00:55:37;;;;;;;0.00;0.00;;;;;;;;;;1731842;28;20208;-72
2021/12/20 00:56:29;;;;;;;0.00;0.00;;;;;;;;;;1731638;28;20215;-72
2021/12/20 00:57:21;;;;;;;0.00;0.00;;;;;;;;;;1732029;28;20219;-72
2021/12/20 00:58:12;;;;;;;0.10;0.10;;;;;;;;;;1732430;28;20218;-72
2021/12/20 00:59:04;;;;;;;0.10;0.10;;;;;;;;;;1732000;28;20731;-72
2021/12/20 00:59:55;;;;;;;0.00;0.00;;;;;;;;;;1731687;28;20552;-72
2021/12/20 01:00:51;;;;;;;0.00;0.00;;;;;;;;;;1732119;28;20234;-72
2021/12/20 01:01:43;;;;;;;0.00;0.00;;;;;;;;;;1735300;28;20206;-72
2021/12/20 01:02:35;;;;;;;0.00;0.00;;;;;;;;;;1731281;28;20204;-72
2021/12/20 01:03:27;;;;;;;0.00;0.00;;;;;;;;;;1734307;28;20475;-72
2021/12/20 01:04:19;;;;;;;0.00;0.00;;;;;;;;;;1730949;28;20199;-72
2021/12/20 01:05:11;;;;;;;0.00;0.00;;;;;;;;;;1732749;28;20207;-72
2021/12/20 01:06:04;;;;;;;0.10;0.10;;;;;;;;;;1730511;28;20227;-72
2021/12/20 01:06:55;;;;;;;0.00;0.00;;;;;;;;;;1732733;28;20698;-72
2021/12/20 01:07:47;;;;;;;0.03;0.03;;;;;;;;;;1730642;28;20223;-72
2021/12/20 01:08:41;;;;;;;0.10;0.10;;;;;;;;;;1732806;28;20207;-72
2021/12/20 01:09:33;;;;;;;0.00;0.00;;;;;;;;;;1730851;28;20818;-72
2021/12/20 01:10:25;;;;;;;0.00;0.00;;;;;;;;;;1731876;28;20601;-72
2021/12/20 01:11:22;;;;;;;0.05;0.05;;;;;;;;;;1730970;28;20207;-72
2021/12/20 01:12:17;;;;;;;0.10;0.10;;;;;;;;;;1732615;28;20262;-72
2021/12/20 01:13:10;;;;;;;0.00;0.00;;;;;;;;;;1733534;28;20253;-72
2021/12/20 01:14:01;;;;;;;0.00;0.00;;;;;;;;;;1732538;28;20203;-72
2021/12/20 01:14:59;;;;;;;0.10;0.10;;;;;;;;;;1731138;28;20199;-72
2021/12/20 01:15:52;;;;;;;0.00;0.00;;;;;;;;;;1731198;28;20715;-72
2021/12/20 01:16:44;;;;;;;0.00;0.00;;;;;;;;;;1731899;28;20640;-72
2021/12/20 01:17:36;;;;;;;0.00;0.00;;;;;;;;;;1730843;28;20207;-72
2021/12/20 01:18:28;;;;;;;0.10;0.10;;;;;;;;;;1733991;28;20608;-72
2021/12/20 01:19:19;;;;;;;0.00;0.00;;;;;;;;;;1730982;28;20211;-72
2021/12/20 01:20:12;;;;;;;0.00;0.00;;;;;;;;;;1735523;28;20203;-72
2021/12/20 01:21:03;;;;;;;0.00;0.00;;;;;;;;;;1730391;28;20594;-72
2021/12/20 01:21:56;;;;;;;0.00;0.00;;;;;;;;;;1732365;28;20592;-72
2021/12/20 01:22:48;;;;;;;0.00;0.00;;;;;;;;;;1730592;28;20212;-72
2021/12/20 01:23:42;;;;;;;0.00;0.00;;;;;;;;;;1733336;28;20207;-72
2021/12/20 01:24:34;;;;;;;0.10;0.10;;;;;;;;;;1734207;28;20207;-72
2021/12/20 01:25:26;;;;;;;0.00;0.00;;;;;;;;;;1732726;28;20265;-72
2021/12/20 01:26:17;;;;;;;0.00;0.00;;;;;;;;;;1730886;28;20271;-72
2021/12/20 01:27:09;;;;;;;0.00;0.00;;;;;;;;;;1732829;28;20195;-72
2021/12/20 01:28:01;;;;;;;0.00;0.00;;;;;;;;;;1730678;28;20203;-72
2021/12/20 01:28:53;;;;;;;0.00;0.00;;;;;;;;;;1731726;28;20618;-72
2021/12/20 01:29:44;;;;;;;0.10;0.10;;;;;;;;;;1730461;28;20556;-72
2021/12/20 01:30:36;;;;;;;0.00;0.00;;;;;;;;;;1731924;28;20210;-72
2021/12/20 01:31:28;;;;;;;0.00;0.00;;;;;;;;;;1730838;28;20215;-72
2021/12/20 01:32:20;;;;;;;0.00;0.00;;;;;;;;;;1732244;28;20200;-72
2021/12/20 01:33:12;;;;;;;0.00;0.00;;;;;;;;;;1733896;28;20214;-72
2021/12/20 01:34:05;;;;;;;0.10;0.10;;;;;;;;;;1732333;28;20217;-72
2021/12/20 01:34:56;;;;;;;0.10;0.10;;;;;;;;;;1735637;28;20209;-72
2021/12/20 01:35:48;;;;;;;0.00;0.00;;;;;;;;;;1730958;28;20239;-72
2021/12/20 01:36:39;;;;;;;0.00;0.00;;;;;;;;;;1731052;28;20212;-72
2021/12/20 01:37:32;;;;;;;0.00;0.00;;;;;;;;;;1732035;28;20297;-72
2021/12/20 01:38:23;;;;;;;0.00;0.00;;;;;;;;;;1731984;28;20215;-72
2021/12/20 01:39:17;;;;;;;0.00;0.00;;;;;;;;;;1731028;28;20209;-72
2021/12/20 01:40:10;;;;;;;0.00;0.00;;;;;;;;;;1732869;28;20211;-73
2021/12/20 01:41:02;;;;;;;0.10;0.10;;;;;;;;;;1732321;28;20664;-72
2021/12/20 01:41:53;;;;;;;0.00;0.00;;;;;;;;;;1731714;28;20203;-72
2021/12/20 01:42:46;;;;;;;0.00;0.00;;;;;;;;;;1730915;28;20227;-72
2021/12/20 01:43:37;;;;;;;0.00;0.00;;;;;;;;;;1732494;28;20227;-72
2021/12/20 01:44:30;;;;;;;0.00;0.00;;;;;;;;;;1733052;28;20217;-72
2021/12/20 01:45:23;;;;;;;0.00;0.00;;;;;;;;;;1732364;28;20204;-72
2021/12/20 01:46:15;;;;;;;0.00;0.00;;;;;;;;;;1732817;28;20231;-72
2021/12/20 01:47:08;;;;;;;0.05;0.05;;;;;;;;;;1732183;28;20203;-72
2021/12/20 01:48:07;;;;;;;0.00;0.00;;;;;;;;;;1731642;28;20525;-72
2021/12/20 01:49:00;;;;;;;0.10;0.10;;;;;;;;;;1731866;28;20196;-72
2021/12/20 01:49:59;;;;;;;0.10;0.10;;;;;;;;;;1735544;28;20523;-72
2021/12/20 01:51:16;;;;;;;0.00;0.00;;;;;;;;;;1732098;28;20329;-72
2021/12/20 01:52:15;;;;;;;0.10;0.10;;;;;;;;;;1730540;28;20187;-72
2021/12/20 01:53:06;;;;;;;0.00;0.00;;;;;;;;;;1732986;28;20192;-72
2021/12/20 01:53:59;;;;;;;0.00;0.00;;;;;;;;;;1731664;28;20273;-72
2021/12/20 01:54:51;;;;;;;0.00;0.00;;;;;;;;;;1732307;28;20210;-72
2021/12/20 01:55:44;;;;;;;0.00;0.00;;;;;;;;;;1731264;28;20235;-72
2021/12/20 01:56:39;;;;;;;0.00;0.00;;;;;;;;;;1733260;28;20208;-72
2021/12/20 01:57:31;;;;;;;0.00;0.00;;;;;;;;;;1728087;28;20231;-72
2021/12/20 01:58:23;;;;;;;0.00;0.00;;;;;;;;;;1734514;28;20199;-72
2021/12/20 01:59:15;;;;;;;0.00;0.00;;;;;;;;;;1732726;28;20203;-72
2021/12/20 02:00:09;;;;;;;0.00;0.00;;;;;;;;;;1734517;28;20218;-72
2021/12/20 02:01:22;;;;;;;0.08;0.08;;;;;;;;;;1732268;28;20549;-72
2021/12/20 02:02:14;;;;;;;0.00;0.00;;;;;;;;;;1730960;28;20644;-72
2021/12/20 02:03:08;;;;;;;0.00;0.00;;;;;;;;;;1733093;28;20629;-72
2021/12/20 02:04:02;;;;;;;0.00;0.00;;;;;;;;;;1732074;28;20257;-72
2021/12/20 02:05:01;;;;;;;0.00;0.00;;;;;;;;;;1736174;28;20276;-72
2021/12/20 02:05:56;;;;;;;0.00;0.00;;;;;;;;;;1730161;28;20235;-72
2021/12/20 02:06:48;;;;;;;0.00;0.00;;;;;;;;;;1731028;28;20253;-72
2021/12/20 02:07:50;;;;;;;0.00;0.00;;;;;;;;;;1731549;28;20249;-72
2021/12/20 02:08:42;;;;;;;0.00;0.00;;;;;;;;;;1730430;28;20210;-72
2021/12/20 02:09:35;;;;;;;0.10;0.10;;;;;;;;;;1732528;28;20223;-72
2021/12/20 02:10:27;;;;;;;0.00;0.00;;;;;;;;;;1732950;28;20207;-72
2021/12/20 02:11:19;;;;;;;0.00;0.00;;;;;;;;;;1730192;28;20676;-72
2021/12/20 02:12:11;;;;;;;0.00;0.00;;;;;;;;;;1731572;28;20214;-71
2021/12/20 02:13:03;;;;;;;0.00;0.00;;;;;;;;;;1730515;28;20246;-71
2021/12/20 02:13:55;;;;;;;0.00;0.00;;;;;;;;;;1732110;28;20254;-71
2021/12/20 02:14:46;;;;;;;0.00;0.00;;;;;;;;;;1730705;28;20211;-71
2021/12/20 02:15:38;;;;;;;0.00;0.00;;;;;;;;;;1731610;28;20238;-71
2021/12/20 02:16:30;;;;;;;0.05;0.05;;;;;;;;;;1730565;28;20234;-71
2021/12/20 02:17:22;;;;;;;0.10;0.10;;;;;;;;;;1732112;28;20206;-71
2021/12/20 02:18:13;;;;;;;0.00;0.00;;;;;;;;;;1729761;28;20208;-71
2021/12/20 02:19:06;;;;;;;0.00;0.00;;;;;;;;;;1731329;28;20663;-71
2021/12/20 02:20:00;;;;;;;0.00;0.00;;;;;;;;;;1732403;28;20218;-71
2021/12/20 02:20:52;;;;;;;0.10;0.10;;;;;;;;;;1730565;28;20314;-71
2021/12/20 02:21:45;;;;;;;0.00;0.00;;;;;;;;;;1736040;28;20210;-71
2021/12/20 02:22:38;;;;;;;0.00;0.00;;;;;;;;;;1730030;28;20298;-71
2021/12/20 02:23:30;;;;;;;0.08;0.08;;;;;;;;;;1735027;28;20890;-71
2021/12/20 02:24:22;;;;;;;0.00;0.00;;;;;;;;;;1729752;28;20277;-71
2021/12/20 02:25:14;;;;;;;0.10;0.10;;;;;;;;;;1735246;28;20200;-71
2021/12/20 02:26:05;;;;;;;0.10;0.10;;;;;;;;;;1730075;28;20293;-71
2021/12/20 02:26:58;;;;;;;0.00;0.00;;;;;;;;;;1732083;28;20576;-71
2021/12/20 02:27:49;;;;;;;0.03;0.03;;;;;;;;;;1730969;28;20207;-71
2021/12/20 02:28:44;;;;;;;0.00;0.00;;;;;;;;;;1733382;28;20298;-71
2021/12/20 02:29:44;;;;;;;0.10;0.10;;;;;;;;;;1730185;28;20200;-71
2021/12/20 02:30:49;;;;;;;0.00;0.00;;;;;;;;;;1730934;28;20200;-71
2021/12/20 02:37:32;;;;;;;0.00;0.00;;;;;;;;;;1731158;28;20203;-72
2021/12/20 02:38:23;;;;;;;0.00;0.00;;;;;;;;;;1731213;28;20573;-72
2021/12/20 02:39:15;;;;;;;0.00;0.00;;;;;;;;;;1731174;28;20656;-72
2021/12/20 02:40:08;;;;;;;0.00;0.00;;;;;;;;;;1735305;28;20218;-72
2021/12/20 02:41:03;;;;;;;0.00;0.00;;;;;;;;;;1730445;28;20231;-72
2021/12/20 02:41:55;;;;;;;0.00;0.00;;;;;;;;;;1732143;28;20204;-72
2021/12/20 02:42:48;;;;;;;0.00;0.00;;;;;;;;;;1730512;28;20212;-72
2021/12/20 02:43:42;;;;;;;0.00;0.00;;;;;;;;;;1733040;28;20528;-72
2021/12/20 02:44:33;;;;;;;0.10;0.10;;;;;;;;;;1732999;28;20553;-72
2021/12/20 02:45:30;;;;;;;0.00;0.00;;;;;;;;;;1735844;28;20199;-72
2021/12/20 02:46:32;;;;;;;0.00;0.00;;;;;;;;;;1734122;28;20239;-72
2021/12/20 02:47:28;;;;;;;0.00;0.00;;;;;;;;;;1733002;28;20204;-72
2021/12/20 02:48:20;;;;;;;0.00;0.00;;;;;;;;;;1735338;28;20651;-71
2021/12/20 02:49:13;;;;;;;0.10;0.10;;;;;;;;;;1732193;28;20227;-71
2021/12/20 02:50:07;;;;;;;0.00;0.00;;;;;;;;;;1736299;28;20203;-71
2021/12/20 02:51:00;;;;;;;0.20;0.20;;;;;;;;;;1731995;28;20289;-71
2021/12/20 02:51:53;;;;;;;0.00;0.00;;;;;;;;;;1735439;28;20202;-71
2021/12/20 02:52:45;;;;;;;0.00;0.00;;;;;;;;;;1732641;28;20212;-71
2021/12/20 02:53:36;;;;;;;0.10;0.10;;;;;;;;;;1733207;28;20672;-71
2021/12/20 02:54:29;;;;;;;0.00;0.00;;;;;;;;;;1732404;28;20226;-71
2021/12/20 02:55:21;;;;;;;0.10;0.10;;;;;;;;;;1731647;28;20203;-71
2021/12/20 02:56:12;;;;;;;0.00;0.00;;;;;;;;;;1732360;28;20230;-71
2021/12/20 02:57:05;;;;;;;0.00;0.00;;;;;;;;;;1730713;28;20660;-71
2021/12/20 02:59:33;;;;;;;0.00;0.00;;;;;;;;;;1727287;28;20207;-71
2021/12/20 03:00:24;;;;;;;0.00;0.00;;;;;;;;;;1730632;28;20471;-71
2021/12/20 03:01:16;;;;;;;0.00;0.00;;;;;;;;;;1731563;28;20235;-72
2021/12/20 03:02:09;;;;;;;0.00;0.00;;;;;;;;;;1733501;28;20211;-72
2021/12/20 03:03:01;;;;;;;0.10;0.10;;;;;;;;;;1732397;28;20214;-72
2021/12/20 03:03:53;;;;;;;0.00;0.00;;;;;;;;;;1733338;28;20207;-72
2021/12/20 03:04:46;;;;;;;0.10;0.10;;;;;;;;;;1732592;28;20660;-72
2021/12/20 03:05:37;;;;;;;0.10;0.10;;;;;;;;;;1733010;28;20207;-72
2021/12/20 03:06:37;;;;;;;0.00;0.00;;;;;;;;;;1732174;28;21051;-72
2021/12/20 03:07:28;;;;;;;0.00;0.00;;;;;;;;;;1732166;28;20245;-72
2021/12/20 03:08:22;;;;;;;0.00;0.00;;;;;;;;;;1732462;28;20231;-72
2021/12/20 03:09:16;;;;;;;0.00;0.00;;;;;;;;;;1732481;28;20881;-72
2021/12/20 03:10:10;;;;;;;0.00;0.00;;;;;;;;;;1736691;28;20202;-72
2021/12/20 03:11:01;;;;;;;0.00;0.00;;;;;;;;;;1731952;28;20231;-72
2021/12/20 03:11:55;;;;;;;0.00;0.00;;;;;;;;;;1733483;28;20203;-72
2021/12/20 03:12:48;;;;;;;0.00;0.00;;;;;;;;;;1731842;28;20326;-72
2021/12/20 03:13:43;;;;;;;0.00;0.00;;;;;;;;;;1733217;28;20199;-72
2021/12/20 03:14:38;;;;;;;0.00;0.00;;;;;;;;;;1732207;28;20211;-72
2021/12/20 03:15:30;;;;;;;0.00;0.00;;;;;;;;;;1733066;28;20200;-72
2021/12/20 03:16:21;;;;;;;0.00;0.00;;;;;;;;;;1732194;28;20550;-72
2021/12/20 03:17:13;;;;;;;0.00;0.00;;;;;;;;;;1733552;28;20210;-72
2021/12/20 03:18:05;;;;;;;0.08;0.08;;;;;;;;;;1732026;28;20204;-72
2021/12/20 03:18:57;;;;;;;0.00;0.00;;;;;;;;;;1732511;28;20196;-72
2021/12/20 03:19:48;;;;;;;0.00;0.00;;;;;;;;;;1732227;28;20611;-72
2021/12/20 03:20:41;;;;;;;0.03;0.03;;;;;;;;;;1732758;28;20286;-72
2021/12/20 03:21:34;;;;;;;0.00;0.00;;;;;;;;;;1732732;28;20208;-72
2021/12/20 03:22:26;;;;;;;0.00;0.00;;;;;;;;;;1732700;28;20218;-72
2021/12/20 03:23:17;;;;;;;0.00;0.00;;;;;;;;;;1736120;28;20207;-72
2021/12/20 03:24:09;;;;;;;0.00;0.00;;;;;;;;;;1732349;28;20200;-72
2021/12/20 03:25:01;;;;;;;0.00;0.00;;;;;;;;;;1734847;28;20199;-72
2021/12/20 03:25:53;;;;;;;0.00;0.00;;;;;;;;;;1731623;28;20664;-72
2021/12/20 03:26:44;;;;;;;0.00;0.00;;;;;;;;;;1735912;28;20214;-72
2021/12/20 03:27:37;;;;;;;0.10;0.10;;;;;;;;;;1731558;28;20747;-72
2021/12/20 03:28:28;;;;;;;0.00;0.00;;;;;;;;;;1733893;28;20211;-72
2021/12/20 03:29:20;;;;;;;0.10;0.10;;;;;;;;;;1730818;28;20210;-72
2021/12/20 03:30:13;;;;;;;0.00;0.00;;;;;;;;;;1736839;28;20901;-72
2021/12/20 03:31:07;;;;;;;0.00;0.00;;;;;;;;;;1729942;28;20338;-72
2021/12/20 03:31:58;;;;;;;0.00;0.00;;;;;;;;;;1735255;28;20200;-72
2021/12/20 03:32:51;;;;;;;0.00;0.00;;;;;;;;;;1731394;28;20235;-72
2021/12/20 03:33:42;;;;;;;0.00;0.00;;;;;;;;;;1736374;28;20532;-72
2021/12/20 03:34:34;;;;;;;0.00;0.00;;;;;;;;;;1731401;28;20946;-72
2021/12/20 03:35:26;;;;;;;0.00;0.00;;;;;;;;;;1735729;28;20214;-72
2021/12/20 03:36:18;;;;;;;0.00;0.00;;;;;;;;;;1731614;28;20308;-72
2021/12/20 03:37:10;;;;;;;0.10;0.10;;;;;;;;;;1732767;28;20208;-72
2021/12/20 03:38:03;;;;;;;0.00;0.00;;;;;;;;;;1730742;28;20338;-72
2021/12/20 03:38:54;;;;;;;0.00;0.00;;;;;;;;;;1733234;28;20203;-72
2021/12/20 03:39:47;;;;;;;0.00;0.00;;;;;;;;;;1731422;28;20869;-72
2021/12/20 03:40:41;;;;;;;0.00;0.00;;;;;;;;;;1732836;28;20721;-72
2021/12/20 03:41:33;;;;;;;0.10;0.10;;;;;;;;;;1731661;28;20597;-72
2021/12/20 03:42:27;;;;;;;0.00;0.00;;;;;;;;;;1732964;28;20713;-72
2021/12/20 03:43:19;;;;;;;0.00;0.00;;;;;;;;;;1734670;28;20223;-71
2021/12/20 03:44:11;;;;;;;0.00;0.00;;;;;;;;;;1732121;28;20568;-71
2021/12/20 03:45:03;;;;;;;0.10;0.10;;;;;;;;;;1735665;28;20226;-71
2021/12/20 03:45:57;;;;;;;0.10;0.10;;;;;;;;;;1731091;28;20300;-72
2021/12/20 03:46:49;;;;;;;0.03;0.03;;;;;;;;;;1736164;28;20206;-72
2021/12/20 03:47:41;;;;;;;0.00;0.00;;;;;;;;;;1730567;28;20211;-72
2021/12/20 03:48:33;;;;;;;0.00;0.00;;;;;;;;;;1736289;28;20203;-72
2021/12/20 03:49:26;;;;;;;0.00;0.00;;;;;;;;;;1730420;28;20301;-72
2021/12/20 03:50:17;;;;;;;0.08;0.08;;;;;;;;;;1736602;28;20684;-72
2021/12/20 03:51:09;;;;;;;0.00;0.00;;;;;;;;;;1730570;28;20256;-72
2021/12/20 03:52:01;;;;;;;0.00;0.00;;;;;;;;;;1736128;28;20482;-72
2021/12/20 03:52:55;;;;;;;0.10;0.10;;;;;;;;;;1731040;28;20269;-72
2021/12/20 03:53:46;;;;;;;0.10;0.10;;;;;;;;;;1733216;28;20602;-72
2021/12/20 03:54:38;;;;;;;0.00;0.00;;;;;;;;;;1731209;28;20633;-72
2021/12/20 03:55:30;;;;;;;0.00;0.00;;;;;;;;;;1731976;28;20207;-72
2021/12/20 03:56:22;;;;;;;0.00;0.00;;;;;;;;;;1732616;28;20366;-72
2021/12/20 03:57:13;;;;;;;0.10;0.10;;;;;;;;;;1733289;28;20388;-72
2021/12/20 03:58:05;;;;;;;0.30;0.30;;;;;;;;;;1731523;28;20228;-72
2021/12/20 03:58:57;;;;;;;0.10;0.10;;;;;;;;;;1733871;28;20258;-72
2021/12/20 03:59:49;;;;;;;0.00;0.00;;;;;;;;;;1733488;28;20647;-72
2021/12/20 04:00:40;;;;;;;0.00;0.00;;;;;;;;;;1733303;28;20309;-72
2021/12/20 04:01:33;;;;;;;0.00;0.00;;;;;;;;;;1733454;28;20199;-72
2021/12/20 04:02:25;;;;;;;0.05;0.05;;;;;;;;;;1732887;28;20208;-72
2021/12/20 04:03:17;;;;;;;0.10;0.10;;;;;;;;;;1736869;28;20206;-72
2021/12/20 04:04:08;;;;;;;0.10;0.10;;;;;;;;;;1732484;28;20211;-72
2021/12/20 04:05:00;;;;;;;0.00;0.00;;;;;;;;;;1732064;28;20547;-72
2021/12/20 04:05:52;;;;;;;0.00;0.00;;;;;;;;;;1731522;28;20235;-72
2021/12/20 04:06:44;;;;;;;0.00;0.00;;;;;;;;;;1732707;28;20700;-72
2021/12/20 04:07:35;;;;;;;0.00;0.00;;;;;;;;;;1730540;28;20230;-72
2021/12/20 04:08:29;;;;;;;0.10;0.10;;;;;;;;;;1732504;28;20322;-72
2021/12/20 04:09:21;;;;;;;0.00;0.00;;;;;;;;;;1731593;28;20633;-72
2021/12/20 04:10:12;;;;;;;0.00;0.00;;;;;;;;;;1735689;28;20199;-72
2021/12/20 04:11:05;;;;;;;0.00;0.00;;;;;;;;;;1731278;28;20686;-71
2021/12/20 04:11:56;;;;;;;0.10;0.10;;;;;;;;;;1733101;28;20786;-71
2021/12/20 04:12:48;;;;;;;0.00;0.00;;;;;;;;;;1731970;28;20222;-71
2021/12/20 04:13:39;;;;;;;0.10;0.10;;;;;;;;;;1735625;28;20207;-71
2021/12/20 04:14:31;;;;;;;0.00;0.00;;;;;;;;;;1731807;28;20215;-71
2021/12/20 04:15:23;;;;;;;0.10;0.10;;;;;;;;;;1732817;28;20215;-72
2021/12/20 04:16:15;;;;;;;0.00;0.00;;;;;;;;;;1732033;28;20227;-72
2021/12/20 04:17:06;;;;;;;0.08;0.08;;;;;;;;;;1732897;28;20544;-72
2021/12/20 04:17:58;;;;;;;0.00;0.00;;;;;;;;;;1731355;28;20691;-72
2021/12/20 04:18:49;;;;;;;0.10;0.10;;;;;;;;;;1732765;28;20211;-72
2021/12/20 04:19:42;;;;;;;0.05;0.05;;;;;;;;;;1731451;28;20222;-72
2021/12/20 04:20:33;;;;;;;0.10;0.10;;;;;;;;;;1732340;28;20215;-72
2021/12/20 04:21:25;;;;;;;0.10;0.10;;;;;;;;;;1731919;28;20208;-72
2021/12/20 04:22:18;;;;;;;0.10;0.10;;;;;;;;;;1732954;28;20518;-72
2021/12/20 04:23:10;;;;;;;0.10;0.10;;;;;;;;;;1734388;28;20226;-72
2021/12/20 04:24:03;;;;;;;0.08;0.08;;;;;;;;;;1733381;28;20207;-72
2021/12/20 04:24:55;;;;;;;0.00;0.00;;;;;;;;;;1732586;28;20230;-72
2021/12/20 04:25:47;;;;;;;0.00;0.00;;;;;;;;;;1731193;28;20564;-72
2021/12/20 04:26:39;;;;;;;0.00;0.00;;;;;;;;;;1731248;28;20205;-72
2021/12/20 04:27:30;;;;;;;0.08;0.08;;;;;;;;;;1731918;28;20727;-72
2021/12/20 04:28:22;;;;;;;0.05;0.05;;;;;;;;;;1733579;28;20279;-72
2021/12/20 04:29:14;;;;;;;0.00;0.00;;;;;;;;;;1724504;28;20760;-72
2021/12/20 04:30:10;;;;;;;0.10;0.10;;;;;;;;;;1719225;28;20212;-72
2021/12/20 04:31:01;;;;;;;0.00;0.00;;;;;;;;;;1724888;28;20243;-72
2021/12/20 04:31:53;;;;;;;0.10;0.10;;;;;;;;;;1725492;28;20229;-72
2021/12/20 04:32:45;;;;;;;0.00;0.00;;;;;;;;;;1725433;28;20649;-72
2021/12/20 04:33:37;;;;;;;0.00;0.00;;;;;;;;;;1726043;28;20206;-72
2021/12/20 04:34:29;;;;;;;0.00;0.00;;;;;;;;;;1722554;28;20265;-72
2021/12/20 04:35:21;;;;;;;0.10;0.10;;;;;;;;;;1721388;28;20234;-72
2021/12/20 04:36:13;;;;;;;0.00;0.00;;;;;;;;;;1724815;28;20246;-72
2021/12/20 04:37:07;;;;;;;0.00;0.00;;;;;;;;;;1723338;28;20285;-72
2021/12/20 04:38:00;;;;;;;0.10;0.10;;;;;;;;;;1724218;28;20260;-72
2021/12/20 04:38:52;;;;;;;0.10;0.10;;;;;;;;;;1725833;28;20211;-72
2021/12/20 04:39:45;;;;;;;0.10;0.10;;;;;;;;;;1720399;28;20603;-72
2021/12/20 04:40:37;;;;;;;0.10;0.10;;;;;;;;;;1723099;28;20262;-72
2021/12/20 04:41:29;;;;;;;0.00;0.00;;;;;;;;;;1725653;28;20236;-72
2021/12/20 04:42:20;;;;;;;0.00;0.00;;;;;;;;;;1726926;28;20210;-72
2021/12/20 04:43:12;;;;;;;0.00;0.00;;;;;;;;;;1728089;28;20649;-72
2021/12/20 04:44:04;;;;;;;0.10;0.10;;;;;;;;;;1725016;28;20203;-71
2021/12/20 04:44:56;;;;;;;0.10;0.10;;;;;;;;;;1719088;28;20213;-71
2021/12/20 04:45:47;;;;;;;0.00;0.00;;;;;;;;;;1724467;28;20261;-71
2021/12/20 04:46:40;;;;;;;0.10;0.10;;;;;;;;;;1727412;28;20200;-72
2021/12/20 04:47:31;;;;;;;0.03;0.03;;;;;;;;;;1725567;28;20209;-72
2021/12/20 04:48:23;;;;;;;0.08;0.08;;;;;;;;;;1725172;28;20273;-72
2021/12/20 04:49:14;;;;;;;0.13;0.13;;;;;;;;;;1724518;28;20299;-72
2021/12/20 04:50:09;;;;;;;0.10;0.10;;;;;;;;;;1721483;28;20282;-72
2021/12/20 04:51:00;;;;;;;0.20;0.20;;;;;;;;;;1728150;28;20260;-72
2021/12/20 04:51:53;;;;;;;0.10;0.10;;;;;;;;;;1727714;28;20217;-72
2021/12/20 04:52:44;;;;;;;0.20;0.20;;;;;;;;;;1725254;28;20208;-72
2021/12/20 04:53:36;;;;;;;0.03;0.03;;;;;;;;;;1725910;28;20648;-72
2021/12/20 04:54:28;;;;;;;0.10;0.10;;;;;;;;;;1722479;28;20283;-72
2021/12/20 04:55:21;;;;;;;0.10;0.10;;;;;;;;;;1720977;28;20199;-72
2021/12/20 04:56:12;;;;;;;0.10;0.10;;;;;;;;;;1725488;28;20709;-72
2021/12/20 04:57:05;;;;;;;0.00;0.00;;;;;;;;;;1725786;28;20203;-72
2021/12/20 04:57:56;;;;;;;0.00;0.00;;;;;;;;;;1718491;28;20211;-72
2021/12/20 04:58:49;;;;;;;0.28;0.28;;;;;;;;;;1724579;28;20204;-72
2021/12/20 04:59:40;;;;;;;0.03;0.03;;;;;;;;;;1721067;28;20208;-72
2021/12/20 05:00:34;;;;;;;0.10;0.10;;;;;;;;;;1722396;28;20200;-72
2021/12/20 05:01:25;;;;;;;0.10;0.10;;;;;;;;;;1727057;28;20215;-72
2021/12/20 05:02:17;;;;;;;0.10;0.10;;;;;;;;;;1725282;28;20215;-72
2021/12/20 05:03:09;;;;;;;0.10;0.10;;;;;;;;;;1724935;28;20215;-72
2021/12/20 05:04:01;;;;;;;0.05;0.05;;;;;;;;;;1725964;28;20203;-72
2021/12/20 05:04:52;;;;;;;0.10;0.10;;;;;;;;;;1719161;28;20744;-72
2021/12/20 05:05:44;;;;;;;0.10;0.10;;;;;;;;;;1723831;28;20266;-72
2021/12/20 05:06:35;;;;;;;0.00;0.00;;;;;;;;;;1725104;28;20212;-72
2021/12/20 05:07:27;;;;;;;0.10;0.10;;;;;;;;;;1725128;28;20212;-72
2021/12/20 05:08:20;;;;;;;0.00;0.00;;;;;;;;;;1724811;28;20373;-72
2021/12/20 05:09:11;;;;;;;0.10;0.10;;;;;;;;;;1724258;28;20300;-72
2021/12/20 05:10:03;;;;;;;0.10;0.10;;;;;;;;;;1718935;28;20313;-72
2021/12/20 05:10:56;;;;;;;0.10;0.10;;;;;;;;;;1724977;28;20385;-72
2021/12/20 05:11:50;;;;;;;0.00;0.00;;;;;;;;;;1726604;28;20208;-72
2021/12/20 05:12:41;;;;;;;0.10;0.10;;;;;;;;;;1725284;28;20207;-72
2021/12/20 05:13:34;;;;;;;0.10;0.10;;;;;;;;;;1725559;28;20467;-72
2021/12/20 05:14:25;;;;;;;0.00;0.00;;;;;;;;;;1722275;28;20215;-72
2021/12/20 05:15:17;;;;;;;0.10;0.10;;;;;;;;;;1720327;28;20205;-72
2021/12/20 05:16:09;;;;;;;0.00;0.00;;;;;;;;;;1724508;28;20229;-72
2021/12/20 05:17:01;;;;;;;0.22;0.22;;;;;;;;;;1725666;28;20229;-72
2021/12/20 05:17:53;;;;;;;0.00;0.00;;;;;;;;;;1727845;28;20444;-72
2021/12/20 05:18:46;;;;;;;0.00;0.00;;;;;;;;;;1722987;28;20208;-72
2021/12/20 05:19:40;;;;;;;0.20;0.20;;;;;;;;;;1720844;28;20250;-72
2021/12/20 05:20:31;;;;;;;0.10;0.10;;;;;;;;;;1721738;28;20208;-72
2021/12/20 05:21:26;;;;;;;0.10;0.10;;;;;;;;;;1725755;28;20196;-72
2021/12/20 05:22:17;;;;;;;0.10;0.10;;;;;;;;;;1725780;28;20192;-72
2021/12/20 05:23:11;;;;;;;0.00;0.00;;;;;;;;;;1727771;28;20272;-72
2021/12/20 05:24:02;;;;;;;0.10;0.10;;;;;;;;;;1725964;28;20388;-72
2021/12/20 05:24:54;;;;;;;0.00;0.00;;;;;;;;;;1720301;28;20205;-72
2021/12/20 05:25:45;;;;;;;0.00;0.00;;;;;;;;;;1723771;28;20624;-72